Wetterdaten: Dezember 2016
Datum Temp Feuchte Luftdruck Regen Wind Richtung Sonnenschein UV Solar Windben
01.12.2016 3,7 C 96 % 1023,2 hPa 1,8 l/m 7,7 km/h W 0,00 h 0,0 UV-I 16 W/m 24,2 km/h
02.12.2016 2,9 C 94 % 1020,9 hPa 3,6 l/m 4,4 km/h N-NW 2,17 h 0,6 UV-I 93 W/m 11,2 km/h
03.12.2016 -1,8 C 95 % 1026,3 hPa 0,4 l/m 0,0 km/h N 3,58 h 0,6 UV-I 126 W/m 0,0 km/h
04.12.2016 -1,6 C 83 % 1028,8 hPa 0,0 l/m 0,4 km/h SO 3,42 h 0,6 UV-I 111 W/m 2,1 km/h
05.12.2016 -1,8 C 81 % 1027,2 hPa 0,0 l/m 1,0 km/h S 3,67 h 0,6 UV-I 108 W/m 2,3 km/h
06.12.2016 -4,5 C 92 % 1031,5 hPa 0,0 l/m 0,7 km/h SO 3,33 h 0,6 UV-I 107 W/m 2,3 km/h
07.12.2016 0,2 C 93 % 1032,0 hPa 0,2 l/m 5,5 km/h S 0,25 h 0,6 UV-I 68 W/m 8,7 km/h
08.12.2016 4,1 C 83 % 1028,4 hPa 0,0 l/m 1,6 km/h S 2,67 h 0,6 UV-I 103 W/m 3,4 km/h
09.12.2016 7,4 C 96 % 1026,8 hPa 6,0 l/m 1,8 km/h S-SW 0,00 h 0,0 UV-I 25 W/m 8,1 km/h
10.12.2016 6,9 C 91 % 1022,0 hPa 1,8 l/m 0,6 km/h S-SW 0,00 h 0,5 UV-I 45 W/m 4,1 km/h
11.12.2016 6,6 C 96 % 1016,3 hPa 13,2 l/m 11,6 km/h NW 0,17 h 0,5 UV-I 32 W/m 27,9 km/h
12.12.2016 5,8 C 97 % 1023,8 hPa 2,6 l/m 2,2 km/h W-NW 0,00 h 0,0 UV-I 24 W/m 9,3 km/h
13.12.2016 4,9 C 95 % 1023,9 hPa 0,8 l/m 1,1 km/h S-SO 0,00 h 0,0 UV-I 38 W/m 2,3 km/h
14.12.2016 5,9 C 98 % 1024,2 hPa 1,0 l/m 0,4 km/h S-SO 0,08 h 0,0 UV-I 39 W/m 1,3 km/h
15.12.2016 4,7 C 96 % 1026,7 hPa 0,0 l/m 16,2 km/h S-SO 0,00 h 0,0 UV-I 27 W/m 25,7 km/h
16.12.2016 1,7 C 94 % 1029,3 hPa 0,0 l/m 14,2 km/h S-SO 1,17 h 0,5 UV-I 75 W/m 20,4 km/h
17.12.2016 1,2 C 96 % 1036,6 hPa 0,2 l/m 0,4 km/h S 0,00 h 0,0 UV-I 40 W/m 1,6 km/h
18.12.2016 4,5 C 97 % 1034,0 hPa 2,8 l/m 1,4 km/h W 0,00 h 0,0 UV-I 15 W/m 7,9 km/h
19.12.2016 3,0 C 95 % 1029,3 hPa 0,0 l/m 2,0 km/h SO 0,33 h 0,5 UV-I 52 W/m 6,4 km/h
20.12.2016 -0,8 C 96 % 1024,6 hPa 0,0 l/m 8,9 km/h S-SO 0,00 h 0,5 UV-I 42 W/m 17,7 km/h
21.12.2016 -0,7 C 94 % 1026,6 hPa 0,0 l/m 8,3 km/h S 4,42 h 0,6 UV-I 113 W/m 12,4 km/h
22.12.2016 1,4 C 97 % 1028,7 hPa 8,4 l/m 7,2 km/h S 0,00 h 0,0 UV-I 27 W/m 11,0 km/h
23.12.2016 3,5 C 96 % 1030,9 hPa 0,0 l/m 4,3 km/h S 0,50 h 0,5 UV-I 52 W/m 9,2 km/h
24.12.2016 5,5 C 91 % 1022,9 hPa 5,8 l/m 10,2 km/h S-SW 0,42 h 0,5 UV-I 54 W/m 25,8 km/h
25.12.2016 7,3 C 96 % 1021,5 hPa 5,4 l/m 12,7 km/h SW 0,00 h 0,0 UV-I 23 W/m 33,6 km/h
26.12.2016 6,5 C 90 % 1024,3 hPa 5,0 l/m 11,9 km/h S-SW 0,25 h 0,5 UV-I 37 W/m 30,9 km/h
27.12.2016 4,2 C 91 % 1036,5 hPa 0,2 l/m 6,7 km/h NW 0,08 h 0,0 UV-I 29 W/m 24,5 km/h
28.12.2016 3,6 C 95 % 1042,8 hPa 0,0 l/m 1,0 km/h NW 0,00 h 0,0 UV-I 31 W/m 6,8 km/h
29.12.2016 0,8 C 91 % 1040,4 hPa 0,0 l/m 1,8 km/h S-SO 4,67 h 0,6 UV-I 113 W/m 3,2 km/h
30.12.2016 -1,4 C 89 % 1037,1 hPa 0,2 l/m 0,2 km/h S 4,25 h 0,6 UV-I 118 W/m 0,5 km/h
31.12.2016 -0,9 C 86 % 1031,4 hPa 0,0 l/m 0,5 km/h S-SO 3,42 h 0,6 UV-I 95 W/m 2,1 km/h
Min-Datum 06.12.16 30.12.16 11.12.16 18 Tage 01.12.16 - - - - 01.12.16
Min-Zeit 08:30 15:00 06:15 - 07:50 - - - - 07:50
Minimum -7,8 C 62 % 1010,3 hPa - 0,0 km/h - - - - 0,0 km/h
Max-Datum 08.12.16 10.12.16 28.12.16 11.12.16 16.12.16 - 29.12.16 02.12.16 03.12.16 26.12.16
Max-Zeit 13:35 05:35 10:10 17:15 09:55 - 14:55 11:25 11:45 16:25
Maximum 9,4 C 100 % 1043,5 hPa 13,2 l/m 28,6 km/h
S-SO
- 4,58 h 0,7 UV-I 285 W/m 59,5 km/h
SW
Durchschnitt 2,7 C 93 % 1028,4 hPa #59,4 l/m 4,7 km/h S #38:50 h 0,6 UV-I 60 W/m 11,2 km/h

Durchschnitt Minimum Temp.0,1 C
Durchschnitt Maximum Temp.5,4 C